createdAt,value
2018-04-02T00:01:02.209Z,32.65
2018-04-02T00:03:29.680Z,29.17
2018-04-02T00:05:57.201Z,28.35
2018-04-02T00:08:24.675Z,26.25
2018-04-02T00:10:52.160Z,26.10
2018-04-02T00:13:19.624Z,27.27
2018-04-02T00:15:47.375Z,27.37
2018-04-02T00:18:14.912Z,24.50
2018-04-02T00:20:42.780Z,28.85
2018-04-02T00:23:10.282Z,24.70
2018-04-02T00:25:37.772Z,29.23
2018-04-02T00:28:06.016Z,29.42
2018-04-02T00:30:33.500Z,28.65
2018-04-02T00:33:00.956Z,25.95
2018-04-02T00:35:29.188Z,25.40
2018-04-02T00:37:56.667Z,26.05
2018-04-02T00:40:24.189Z,25.73
2018-04-02T00:42:51.687Z,24.45
2018-04-02T00:45:19.173Z,21.58
2018-04-02T00:47:47.040Z,23.92
2018-04-02T00:50:15.281Z,29.80
2018-04-02T00:52:42.761Z,30.70
2018-04-02T00:55:10.227Z,27.67
2018-04-02T00:57:38.482Z,27.70
2018-04-02T01:00:06.256Z,33.47
2018-04-02T01:02:33.721Z,35.97
2018-04-02T01:05:02.036Z,30.95
2018-04-02T01:07:29.801Z,33.47
2018-04-02T01:09:57.267Z,33.13
2018-04-02T01:12:24.729Z,32.25
2018-04-02T01:14:52.223Z,41.08
2018-04-02T01:17:20.455Z,34.63
2018-04-02T01:19:47.919Z,40.28
2018-04-02T01:22:15.570Z,40.12
2018-04-02T01:24:43.032Z,35.67
2018-04-02T01:27:10.516Z,38.58
2018-04-02T01:29:37.999Z,36.60
2018-04-02T01:32:06.227Z,37.65
2018-04-02T01:34:33.714Z,33.15
2018-04-02T01:37:01.191Z,34.65
2018-04-02T01:39:29.499Z,37.58
2018-04-02T01:41:56.968Z,35.83
2018-04-02T01:44:24.444Z,37.67
2018-04-02T01:46:51.906Z,37.63
2018-04-02T01:49:19.384Z,38.58
2018-04-02T01:51:47.961Z,43.30
2018-04-02T01:54:16.207Z,38.20
2018-04-02T01:56:43.678Z,41.30
2018-04-02T01:59:11.161Z,39.30
2018-04-02T02:01:39.413Z,43.70
2018-04-02T02:04:07.280Z,46.50
2018-04-02T02:06:35.008Z,41.55
2018-04-02T02:09:03.607Z,45.97
2018-04-02T02:11:31.079Z,48.00
2018-04-02T02:13:58.860Z,50.12
2018-04-02T02:16:26.327Z,49.80
2018-04-02T02:18:54.560Z,50.05
2018-04-02T02:21:22.046Z,57.00
2018-04-02T02:23:49.524Z,51.42
2018-04-02T02:26:17.761Z,52.33
2018-04-02T02:28:45.549Z,58.30
2018-04-02T02:31:13.021Z,50.33
2018-04-02T02:33:41.248Z,55.20
2018-04-02T02:36:09.040Z,55.38
2018-04-02T02:38:36.522Z,57.38
2018-04-02T02:41:04.755Z,56.67
2018-04-02T02:43:33.015Z,53.80
2018-04-02T02:46:00.494Z,57.45
2018-04-02T02:48:27.954Z,53.80
2018-04-02T02:50:55.707Z,57.83
2018-04-02T02:53:23.182Z,58.20
2018-04-02T02:55:50.651Z,55.17
2018-04-02T02:58:18.210Z,58.45
2018-04-02T03:00:46.440Z,57.42
2018-04-02T03:03:13.906Z,41.15
2018-04-02T03:05:42.532Z,54.45
2018-04-02T03:08:10.786Z,56.83
2018-04-02T03:10:38.262Z,54.33
2018-04-02T03:13:06.833Z,62.20
2018-04-02T03:15:34.307Z,51.55
2018-04-02T03:18:02.540Z,52.25
2018-04-02T03:20:30.028Z,48.92
2018-04-02T03:22:57.508Z,57.85
2018-04-02T03:25:24.985Z,51.35
2018-04-02T03:27:52.954Z,55.42
2018-04-02T03:30:20.428Z,51.33
2018-04-02T03:32:47.892Z,53.25
2018-04-02T03:35:15.684Z,59.20
2018-04-02T03:37:43.172Z,52.13
2018-04-02T03:40:10.633Z,51.58
2018-04-02T03:42:38.132Z,58.38
2018-04-02T03:45:05.599Z,60.65
2018-04-02T03:47:33.074Z,56.78
2018-04-02T03:50:00.841Z,61.25
2018-04-02T03:52:29.078Z,66.50
2018-04-02T03:54:56.547Z,57.08
2018-04-02T03:57:24.420Z,57.92
2018-04-02T03:59:51.896Z,64.15
2018-04-02T04:02:19.367Z,58.58
2018-04-02T04:04:47.940Z,61.08
2018-04-02T04:07:16.189Z,57.67
2018-04-02T04:09:43.663Z,62.92
2018-04-02T04:12:11.639Z,58.15
2018-04-02T04:14:39.871Z,60.12
2018-04-02T04:17:07.731Z,62.35
2018-04-02T04:19:35.214Z,60.85
2018-04-02T04:22:03.089Z,58.28
2018-04-02T04:24:30.556Z,54.78
2018-04-02T04:26:59.101Z,63.85
2018-04-02T04:29:26.592Z,54.80
2018-04-02T04:31:54.062Z,66.85
2018-04-02T04:34:22.647Z,60.12
2018-04-02T04:36:50.883Z,65.80
2018-04-02T04:39:18.371Z,63.33
2018-04-02T04:41:45.855Z,60.95
2018-04-02T04:44:13.331Z,58.87
2018-04-02T04:46:40.832Z,64.00
2018-04-02T04:49:08.809Z,58.58
2018-04-02T04:51:36.321Z,63.25
2018-04-02T04:54:03.771Z,65.78
2018-04-02T04:56:31.659Z,63.90
2018-04-02T04:58:59.128Z,65.57
2018-04-02T05:01:26.604Z,51.90
2018-04-02T05:03:54.416Z,60.50
2018-04-02T05:06:21.885Z,60.83
2018-04-02T05:08:49.350Z,56.72
2018-04-02T05:11:17.159Z,67.65
2018-04-02T05:13:45.061Z,58.22
2018-04-02T05:18:46.376Z,56.63
2018-04-02T05:21:13.888Z,61.05
2018-04-02T05:23:41.353Z,58.17
2018-04-02T05:26:09.151Z,59.80
2018-04-02T05:28:38.128Z,64.62
2018-04-02T05:31:05.993Z,62.45
2018-04-02T05:33:33.503Z,65.03
2018-04-02T05:36:01.354Z,59.08
2018-04-02T05:38:29.590Z,49.97
2018-04-02T05:40:57.530Z,65.15
2018-04-02T05:43:24.995Z,68.30
2018-04-02T05:45:52.467Z,65.35
2018-04-02T05:48:19.952Z,32.30
2018-04-02T05:50:48.279Z,71.50
2018-04-02T05:53:15.742Z,65.45
2018-04-02T05:55:43.611Z,72.70
2018-04-02T05:58:11.088Z,60.95
2018-04-02T06:00:38.571Z,56.75
2018-04-02T06:03:06.044Z,71.12
2018-04-02T06:05:34.276Z,67.45
2018-04-02T06:08:01.744Z,72.95
2018-04-02T06:10:29.222Z,70.87
2018-04-02T06:12:57.462Z,67.30
2018-04-02T06:15:24.938Z,73.85
2018-04-02T06:17:52.431Z,76.87
2018-04-02T06:20:20.015Z,71.30
2018-04-02T06:22:47.491Z,66.70
2018-04-02T06:25:15.442Z,71.10
2018-04-02T06:27:42.915Z,84.75
2018-04-02T06:30:11.307Z,75.80
2018-04-02T06:32:38.792Z,63.80
2018-04-02T06:35:06.704Z,73.18
2018-04-02T06:37:34.176Z,53.40
2018-04-02T06:40:01.986Z,66.22
2018-04-02T06:42:29.582Z,72.07
2018-04-02T06:44:57.047Z,72.95
2018-04-02T06:47:24.780Z,75.47
2018-04-02T06:49:52.243Z,70.43
2018-04-02T06:52:19.736Z,65.40
2018-04-02T06:54:47.278Z,69.05
2018-04-02T06:57:14.743Z,67.43
2018-04-02T06:59:43.033Z,62.67
2018-04-02T07:02:10.533Z,75.18
2018-04-02T07:04:39.049Z,61.17
2018-04-02T07:07:06.604Z,66.68
2018-04-02T07:09:34.088Z,57.55
2018-04-02T07:12:01.564Z,61.17
2018-04-02T07:14:29.044Z,57.33
2018-04-02T07:16:57.607Z,62.15
2018-04-02T07:19:25.863Z,61.78
2018-04-02T07:21:53.804Z,38.72
2018-04-02T07:24:21.283Z,56.85
2018-04-02T07:26:49.147Z,52.75
2018-04-02T07:29:16.612Z,53.47
2018-04-02T07:31:44.396Z,40.12
2018-04-02T07:34:11.872Z,63.08
2018-04-02T07:36:40.108Z,51.83
2018-04-02T07:39:08.004Z,52.38
2018-04-02T07:41:36.325Z,54.60
2018-04-02T07:44:03.804Z,49.20
2018-04-02T07:46:31.584Z,54.55
2018-04-02T07:48:59.057Z,45.97
2018-04-02T07:51:27.315Z,55.80
2018-04-02T07:53:54.816Z,44.25
2018-04-02T07:56:22.281Z,49.85
2018-04-02T07:58:49.755Z,48.60
2018-04-02T08:01:17.563Z,51.20
2018-04-02T08:03:45.035Z,42.30
2018-04-02T08:06:13.263Z,27.23
2018-04-02T08:08:41.122Z,51.17
2018-04-02T08:11:08.576Z,44.20
2018-04-02T08:13:36.040Z,48.08
2018-04-02T08:16:03.575Z,49.15
2018-04-02T08:18:31.040Z,25.17
2018-04-02T08:20:58.915Z,47.55
2018-04-02T08:23:26.416Z,37.67
2018-04-02T08:25:54.686Z,32.33
2018-04-02T08:28:22.202Z,34.83
2018-04-02T08:30:50.414Z,38.50
2018-04-02T08:33:18.727Z,33.25
2018-04-02T08:35:46.193Z,31.20
2018-04-02T08:38:13.673Z,34.63
2018-04-02T08:40:42.281Z,44.33
2018-04-02T08:43:09.760Z,42.88
2018-04-02T08:45:37.636Z,41.55
2018-04-02T08:48:05.525Z,25.77
2018-04-02T08:50:33.095Z,31.85
2018-04-02T08:53:00.625Z,36.95
2018-04-02T08:55:28.466Z,41.17
2018-04-02T08:57:56.453Z,46.83
2018-04-02T09:00:24.702Z,39.72
2018-04-02T09:02:52.223Z,52.45
2018-04-02T09:05:20.123Z,42.05
2018-04-02T09:07:47.620Z,41.15
2018-04-02T09:10:15.511Z,47.35
2018-04-02T09:12:42.984Z,41.08
2018-04-02T09:15:10.792Z,36.83
2018-04-02T09:17:39.068Z,43.35
2018-04-02T09:20:07.312Z,41.83
2018-04-02T09:22:35.099Z,41.35
2018-04-02T09:25:02.575Z,41.30
2018-04-02T09:27:30.811Z,41.15
2018-04-02T09:29:58.595Z,36.85
2018-04-02T09:32:26.276Z,32.45
2018-04-02T09:34:54.347Z,35.75
2018-04-02T09:37:22.959Z,34.40
2018-04-02T09:39:52.262Z,31.67
2018-04-02T09:42:19.731Z,35.45
2018-04-02T09:44:47.347Z,37.60
2018-04-02T09:47:15.216Z,37.72
2018-04-02T09:49:43.454Z,38.28
2018-04-02T09:52:10.982Z,36.67
2018-04-02T09:54:38.496Z,32.60
2018-04-02T09:57:06.732Z,32.53
2018-04-02T09:59:34.221Z,33.83
2018-04-02T10:02:07.489Z,33.25
2018-04-02T10:04:35.072Z,27.85
2018-04-02T10:07:02.436Z,30.62
2018-04-02T10:09:30.671Z,27.23
2018-04-02T10:11:58.190Z,33.20
2018-04-02T10:14:25.762Z,28.02
2018-04-02T10:16:53.160Z,31.25
2018-04-02T10:19:20.653Z,33.08
2018-04-02T10:21:48.139Z,27.60
2018-04-02T10:24:15.696Z,28.42
2018-04-02T10:26:43.484Z,24.73
2018-04-02T10:29:10.967Z,29.92
2018-04-02T10:31:38.492Z,30.33
2018-04-02T10:34:05.990Z,26.10
2018-04-02T10:36:33.469Z,30.83
2018-04-02T10:39:00.999Z,29.00
2018-04-02T10:41:28.538Z,31.23
2018-04-02T10:43:56.013Z,31.02
2018-04-02T10:46:23.490Z,29.98
2018-04-02T10:48:51.748Z,26.35
2018-04-02T10:51:19.384Z,20.85
2018-04-02T10:53:46.915Z,25.05
2018-04-02T10:56:14.796Z,23.50
2018-04-02T10:58:42.493Z,28.67
2018-04-02T11:01:09.972Z,25.27
2018-04-02T11:03:37.852Z,20.98
2018-04-02T11:06:05.753Z,24.87
2018-04-02T11:08:33.235Z,17.48
2018-04-02T11:11:00.712Z,17.83
2018-04-02T11:13:28.945Z,19.98
2018-04-02T11:15:56.415Z,19.90
2018-04-02T11:18:24.211Z,19.55
2018-04-02T11:20:52.451Z,19.67
2018-04-02T11:23:19.919Z,22.67
2018-04-02T11:25:47.692Z,12.50
2018-04-02T11:28:15.204Z,20.20
2018-04-02T11:30:42.679Z,21.30
2018-04-02T11:33:10.182Z,15.10
2018-04-02T11:35:38.412Z,16.95
2018-04-02T11:38:05.884Z,16.85
2018-04-02T11:40:33.661Z,19.40
2018-04-02T11:43:01.166Z,19.50
2018-04-02T11:45:28.857Z,18.75
2018-04-02T11:47:56.333Z,18.05
2018-04-02T11:50:24.576Z,17.95
2018-04-02T11:52:52.048Z,22.90
2018-04-02T11:55:19.526Z,22.20
2018-04-02T11:57:47.768Z,18.67
2018-04-02T12:00:15.244Z,22.85
2018-04-02T12:02:42.763Z,20.80
2018-04-02T12:05:10.260Z,17.33
2018-04-02T12:07:37.724Z,20.00
2018-04-02T12:10:05.235Z,19.35
2018-04-02T12:12:32.703Z,16.87
2018-04-02T12:15:00.184Z,21.70
2018-04-02T12:17:28.395Z,17.30
2018-04-02T12:19:56.644Z,16.75
2018-04-02T12:22:24.899Z,17.58
2018-04-02T12:24:52.694Z,11.85
2018-04-02T12:27:20.938Z,7.00
2018-04-02T12:29:48.429Z,14.32
2018-04-02T12:32:16.968Z,14.07
2018-04-02T12:34:44.448Z,12.95
2018-04-02T12:37:11.920Z,12.23
2018-04-02T12:39:39.452Z,17.62
2018-04-02T12:42:06.916Z,17.12
2018-04-02T12:44:35.296Z,8.85
2018-04-02T12:47:02.800Z,15.25
2018-04-02T12:49:30.287Z,12.05
2018-04-02T12:51:57.822Z,11.05
2018-04-02T12:54:25.395Z,15.27
2018-04-02T12:56:52.881Z,11.60
2018-04-02T12:59:20.367Z,13.27
2018-04-02T13:01:48.641Z,12.48
2018-04-02T13:04:16.888Z,12.88
2018-04-02T13:06:44.408Z,13.57
2018-04-02T13:09:12.241Z,15.23
2018-04-02T13:11:40.488Z,11.55
2018-04-02T13:14:07.961Z,14.35
2018-04-02T13:16:35.474Z,12.20
2018-04-02T13:19:02.937Z,10.32
2018-04-02T13:21:30.411Z,13.98
2018-04-02T13:23:57.908Z,10.40
2018-04-02T13:26:26.178Z,7.12
2018-04-02T13:28:53.645Z,9.88
2018-04-02T13:31:22.350Z,8.63
2018-04-02T13:33:50.558Z,9.00
2018-04-02T13:36:18.108Z,10.82
2018-04-02T13:38:46.623Z,5.93
2018-04-02T13:41:14.087Z,11.35
2018-04-02T13:43:41.556Z,10.77
2018-04-02T13:46:09.444Z,9.25
2018-04-02T13:48:36.920Z,14.55
2018-04-02T13:51:04.401Z,10.77
2018-04-02T13:53:32.274Z,10.45
2018-04-02T13:56:00.156Z,10.07
2018-04-02T13:58:28.027Z,9.70
2018-04-02T14:00:56.184Z,8.43
2018-04-02T14:03:23.655Z,8.25
2018-04-02T14:05:51.547Z,6.50
2018-04-02T14:08:19.087Z,11.18
2018-04-02T14:10:47.363Z,5.45
2018-04-02T14:13:15.200Z,8.07
2018-04-02T14:15:43.325Z,5.90
2018-04-02T14:18:11.524Z,7.03
2018-04-02T14:20:39.012Z,5.85
2018-04-02T14:23:06.498Z,4.47
2018-04-02T14:25:34.371Z,5.30
2018-04-02T14:28:01.847Z,3.05
2018-04-02T14:30:29.676Z,5.55
2018-04-02T14:32:57.150Z,5.18
2018-04-02T14:35:24.632Z,5.78
2018-04-02T14:37:52.134Z,5.47
2018-04-02T14:40:20.012Z,5.75
2018-04-02T14:42:47.516Z,4.80
2018-04-02T14:45:15.419Z,4.80
2018-04-02T14:47:42.891Z,6.07
2018-04-02T14:50:10.777Z,6.35
2018-04-02T14:52:39.043Z,5.37
2018-04-02T14:55:06.921Z,5.35
2018-04-02T14:57:35.166Z,5.40
2018-04-02T15:00:02.649Z,6.85
2018-04-02T15:02:30.650Z,6.95
2018-04-02T15:04:58.934Z,5.70
2018-04-02T15:07:26.656Z,6.10
2018-04-02T15:09:54.529Z,4.32
2018-04-02T15:12:22.426Z,6.50
2018-04-02T15:14:50.183Z,5.15
2018-04-02T15:17:17.686Z,6.70
2018-04-02T15:19:45.199Z,6.45
2018-04-02T15:22:13.339Z,5.65
2018-04-02T15:24:41.234Z,5.20
2018-04-02T15:27:08.708Z,6.85
2018-04-02T15:29:36.219Z,8.50
2018-04-02T15:32:04.091Z,7.15
2018-04-02T15:34:32.332Z,6.00
2018-04-02T15:37:00.251Z,12.77
2018-04-02T15:39:28.112Z,9.82
2018-04-02T15:41:55.980Z,6.32
2018-04-02T15:44:23.869Z,5.78
2018-04-02T15:46:51.425Z,6.32
2018-04-02T15:49:18.945Z,8.45
2018-04-02T15:51:46.820Z,6.45
2018-04-02T15:54:14.700Z,6.62
2018-04-02T15:56:42.199Z,6.05
2018-04-02T15:59:09.681Z,5.87
2018-04-02T16:01:38.674Z,4.87
2018-04-02T16:04:06.158Z,4.68
2018-04-02T16:06:34.416Z,7.65
2018-04-02T16:09:02.655Z,7.10
2018-04-02T16:11:30.931Z,5.95
2018-04-02T16:13:59.192Z,5.07
2018-04-02T16:16:26.687Z,6.68
2018-04-02T16:18:54.195Z,6.50
2018-04-02T16:21:23.721Z,10.77
2018-04-02T16:23:51.580Z,7.18
2018-04-02T16:26:20.004Z,6.82
2018-04-02T16:28:48.596Z,7.57
2018-04-02T16:31:16.456Z,8.95
2018-04-02T16:33:44.688Z,8.20
2018-04-02T16:36:12.488Z,7.30
2018-04-02T16:38:39.951Z,7.60
2018-04-02T16:41:07.820Z,6.82
2018-04-02T16:43:35.984Z,6.43
2018-04-02T16:46:03.452Z,11.30
2018-04-02T16:48:31.762Z,9.15
2018-04-02T16:50:59.972Z,6.53
2018-04-02T16:53:27.844Z,6.80
2018-04-02T16:55:55.333Z,7.10
2018-04-02T16:58:23.604Z,8.68
2018-04-02T17:00:51.464Z,5.68
2018-04-02T17:03:19.775Z,5.82
2018-04-02T17:05:47.273Z,5.05
2018-04-02T17:08:14.811Z,6.32
2018-04-02T17:10:42.680Z,7.32
2018-04-02T17:13:10.421Z,5.82
2018-04-02T17:15:37.912Z,7.07
2018-04-02T17:18:05.442Z,5.32
2018-04-02T17:20:33.669Z,6.72
2018-04-02T17:23:01.540Z,8.38
2018-04-02T17:25:29.791Z,6.00
2018-04-02T17:27:57.593Z,6.22
2018-04-02T17:30:25.468Z,5.85
2018-04-02T17:32:53.738Z,2.92
2018-04-02T17:35:22.304Z,5.28
2018-04-02T17:37:50.183Z,5.15
2018-04-02T17:40:18.048Z,4.47
2018-04-02T17:42:45.997Z,4.93
2018-04-02T17:45:13.468Z,4.97
2018-04-02T17:47:41.776Z,4.12
2018-04-02T17:50:09.661Z,5.90
2018-04-02T17:52:37.133Z,4.80
2018-04-02T17:55:05.450Z,4.78
2018-04-02T17:57:33.200Z,4.65
2018-04-02T18:00:01.093Z,4.22
2018-04-02T18:02:28.580Z,5.25
2018-04-02T18:04:56.335Z,4.57
2018-04-02T18:07:24.713Z,4.43
2018-04-02T18:09:52.195Z,5.75
2018-04-02T18:12:20.341Z,3.62
2018-04-02T18:14:48.233Z,8.32
2018-04-02T18:17:16.112Z,4.12
2018-04-02T18:19:43.939Z,4.78
2018-04-02T18:22:11.400Z,3.35
2018-04-02T18:24:39.269Z,5.75
2018-04-02T18:27:07.388Z,4.32
2018-04-02T18:29:34.892Z,10.93
2018-04-02T18:32:03.125Z,5.05
2018-04-02T18:34:31.015Z,4.90
2018-04-02T18:36:58.882Z,3.03
2018-04-02T18:39:26.368Z,8.90
2018-04-02T18:41:54.180Z,5.87
2018-04-02T18:44:22.434Z,4.45
2018-04-02T18:46:50.316Z,3.37
2018-04-02T18:49:18.098Z,5.87
2018-04-02T18:51:46.099Z,6.12
2018-04-02T18:54:14.707Z,7.62
2018-04-02T18:56:42.951Z,6.43
2018-04-02T18:59:12.149Z,7.97
2018-04-02T19:01:39.716Z,7.45
2018-04-02T19:04:07.228Z,8.75
2018-04-02T19:06:35.104Z,8.07
2018-04-02T19:09:03.333Z,7.90
2018-04-02T19:11:31.596Z,8.35
2018-04-02T19:13:59.074Z,9.52
2018-04-02T19:16:27.325Z,8.85
2018-04-02T19:18:55.213Z,8.85
2018-04-02T19:21:23.079Z,8.27
2018-04-02T19:23:50.953Z,8.85
2018-04-02T19:26:19.209Z,7.93
2018-04-02T19:28:47.803Z,7.70
2018-04-02T19:31:15.285Z,6.22
2018-04-02T19:33:43.473Z,7.60
2018-04-02T19:36:11.335Z,7.55
2018-04-02T19:38:39.208Z,7.45
2018-04-02T19:41:07.083Z,6.68
2018-04-02T19:43:34.572Z,5.72
2018-04-02T19:46:03.187Z,10.73
2018-04-02T19:48:31.067Z,5.85
2018-04-02T19:50:58.534Z,6.00
2018-04-02T19:53:26.768Z,5.90
2018-04-02T19:55:54.909Z,6.20
2018-04-02T19:58:22.893Z,4.60
2018-04-02T20:00:50.401Z,11.70
2018-04-02T20:03:18.984Z,7.03
2018-04-02T20:05:46.847Z,7.85
2018-04-02T20:08:15.092Z,8.93
2018-04-02T20:10:42.840Z,9.95
2018-04-02T20:13:10.708Z,6.07
2018-04-02T20:15:38.582Z,6.07
2018-04-02T20:18:07.463Z,8.60
2018-04-02T20:20:34.944Z,8.50
2018-04-02T20:23:02.485Z,8.90
2018-04-02T20:25:29.902Z,8.38
2018-04-02T20:27:58.135Z,8.30
2018-04-02T20:30:26.520Z,6.62
2018-04-02T20:32:53.994Z,7.50
2018-04-02T20:35:21.859Z,8.02
2018-04-02T20:37:49.719Z,8.60
2018-04-02T20:40:17.890Z,7.60
2018-04-02T20:42:45.399Z,11.05
2018-04-02T20:45:13.269Z,7.30
2018-04-02T20:47:40.741Z,9.23
2018-04-02T20:50:08.207Z,8.57
2018-04-02T20:52:35.688Z,8.75
2018-04-02T20:55:04.684Z,9.38
2018-04-02T20:57:32.143Z,11.48
2018-04-02T21:00:00.372Z,8.13
2018-04-02T21:02:28.178Z,9.30
2018-04-02T21:04:56.041Z,12.32
2018-04-02T21:07:25.033Z,12.32
2018-04-02T21:09:52.508Z,8.18
2018-04-02T21:12:20.740Z,10.73
2018-04-02T21:14:48.685Z,9.80
2018-04-02T21:17:17.652Z,8.25
2018-04-02T21:19:45.514Z,10.60
2018-04-02T21:22:13.763Z,10.00
2018-04-02T21:24:41.639Z,8.60
2018-04-02T21:27:09.515Z,11.80
2018-04-02T21:29:37.743Z,10.40
2018-04-02T21:32:05.648Z,11.82
2018-04-02T21:34:33.521Z,10.77
2018-04-02T21:37:01.383Z,9.50
2018-04-02T21:39:29.627Z,9.35
2018-04-02T21:41:57.103Z,8.43
2018-04-02T21:44:24.957Z,8.07
2018-04-02T21:46:53.204Z,9.02
2018-04-02T21:49:20.692Z,9.80
2018-04-02T21:51:48.172Z,9.65
2018-04-02T21:54:16.307Z,9.85
2018-04-02T21:56:44.161Z,9.80
2018-04-02T21:59:11.664Z,9.52
2018-04-02T22:01:39.156Z,10.77
2018-04-02T22:04:07.053Z,10.15
2018-04-02T22:20:05.659Z,9.00
2018-04-02T22:22:33.119Z,11.50
2018-04-02T22:25:01.358Z,9.98
2018-04-02T22:27:29.611Z,13.95
2018-04-02T22:29:57.471Z,12.57
2018-04-02T22:32:24.939Z,14.30
2018-04-02T22:34:52.420Z,15.30
2018-04-02T22:37:20.685Z,15.02
2018-04-02T22:39:48.162Z,16.23
2018-04-02T22:42:15.652Z,16.30
2018-04-02T22:44:43.887Z,17.05
2018-04-02T22:47:12.861Z,17.83
2018-04-02T22:49:40.336Z,19.92
2018-04-02T22:52:07.811Z,17.35
2018-04-02T22:54:36.076Z,17.05
2018-04-02T22:57:04.324Z,19.58
2018-04-02T22:59:31.824Z,19.08
2018-04-02T23:01:59.695Z,18.02
2018-04-02T23:04:27.940Z,17.67
2018-04-02T23:06:56.925Z,17.62
2018-04-02T23:09:25.166Z,19.85
2018-04-02T23:11:52.643Z,18.42
2018-04-02T23:14:20.148Z,21.08
2018-04-02T23:16:48.042Z,17.42
2018-04-02T23:19:16.228Z,20.75
2018-04-02T23:21:43.692Z,18.05
2018-04-02T23:24:11.179Z,18.20
2018-04-02T23:26:39.383Z,17.25
2018-04-02T23:29:07.625Z,17.87
2018-04-02T23:31:35.123Z,20.37
2018-04-02T23:34:02.987Z,17.20
2018-04-02T23:36:31.224Z,19.95
2018-04-02T23:38:59.094Z,20.55
2018-04-02T23:41:26.587Z,20.27
2018-04-02T23:43:54.839Z,21.15
2018-04-02T23:46:22.315Z,18.60
2018-04-02T23:48:50.587Z,17.30
2018-04-02T23:51:18.823Z,19.02
2018-04-02T23:53:46.340Z,16.10
2018-04-02T23:56:13.828Z,22.17
2018-04-02T23:58:41.728Z,14.20
